createdAt,value
2022-10-05T00:01:38.427Z,100.00
2022-10-05T00:04:21.952Z,100.00
2022-10-05T00:07:08.830Z,100.00
2022-10-05T00:09:36.711Z,100.00
2022-10-05T00:12:19.825Z,100.00
2022-10-05T00:14:52.449Z,100.00
2022-10-05T00:17:30.616Z,100.00
2022-10-05T00:19:57.860Z,100.00
2022-10-05T00:22:34.511Z,100.00
2022-10-05T00:25:11.201Z,100.00
2022-10-05T00:27:39.038Z,100.00
2022-10-05T00:30:17.708Z,100.00
2022-10-05T00:32:45.783Z,100.00
2022-10-05T00:35:15.819Z,100.00
2022-10-05T00:37:43.789Z,100.00
2022-10-05T00:40:43.699Z,100.00
2022-10-05T00:43:25.086Z,100.00
2022-10-05T00:46:07.957Z,100.00
2022-10-05T00:49:33.268Z,100.00
2022-10-05T00:52:20.308Z,100.00
2022-10-05T00:55:11.496Z,100.00
2022-10-05T00:58:13.667Z,100.00
2022-10-05T01:01:12.847Z,100.00
2022-10-05T01:04:20.583Z,100.00
2022-10-05T01:07:26.330Z,100.00
2022-10-05T01:10:26.055Z,100.00
2022-10-05T01:13:22.255Z,100.00
2022-10-05T01:16:02.616Z,100.00
2022-10-05T01:19:00.326Z,100.00
2022-10-05T01:21:32.391Z,100.00
2022-10-05T01:24:20.461Z,100.00
2022-10-05T01:27:18.515Z,100.00
2022-10-05T01:30:11.207Z,100.00
2022-10-05T01:33:12.815Z,100.00
2022-10-05T01:36:17.276Z,100.00
2022-10-05T01:39:13.245Z,100.00
2022-10-05T01:42:05.464Z,100.00
2022-10-05T01:45:20.866Z,100.00
2022-10-05T01:47:58.128Z,100.00
2022-10-05T01:50:52.487Z,100.00
2022-10-05T01:53:44.399Z,100.00
2022-10-05T01:56:54.548Z,100.00
2022-10-05T01:59:45.632Z,100.00
2022-10-05T02:02:19.234Z,100.00
2022-10-05T02:05:04.504Z,100.00
2022-10-05T02:07:59.449Z,100.00
2022-10-05T02:10:36.628Z,100.00
2022-10-05T02:13:16.268Z,100.00
2022-10-05T02:15:56.778Z,100.00
2022-10-05T02:18:32.774Z,100.00
2022-10-05T02:21:05.643Z,100.00
2022-10-05T02:23:39.762Z,100.00
2022-10-05T02:26:09.974Z,100.00
2022-10-05T02:28:58.925Z,100.00
2022-10-05T02:31:38.027Z,100.00
2022-10-05T02:34:41.722Z,100.00
2022-10-05T02:37:32.328Z,100.00
2022-10-05T02:40:51.567Z,100.00
2022-10-05T02:43:26.668Z,100.00
2022-10-05T02:46:31.105Z,100.00
2022-10-05T02:49:08.686Z,100.00
2022-10-05T02:52:08.243Z,100.00
2022-10-05T02:55:19.333Z,100.00
2022-10-05T02:58:15.151Z,100.00
2022-10-05T03:01:03.419Z,100.00
2022-10-05T03:03:41.904Z,100.00
2022-10-05T03:06:25.955Z,100.00
2022-10-05T03:09:04.620Z,100.00
2022-10-05T03:11:51.494Z,100.00
2022-10-05T03:15:06.273Z,100.00
2022-10-05T03:17:56.568Z,100.00
2022-10-05T03:20:53.194Z,100.00
2022-10-05T03:24:02.363Z,100.00
2022-10-05T03:27:01.143Z,100.00
2022-10-05T03:29:48.080Z,100.00
2022-10-05T03:32:48.762Z,100.00
2022-10-05T03:35:30.861Z,100.00
2022-10-05T03:38:21.433Z,100.00
2022-10-05T03:41:17.481Z,100.00
2022-10-05T03:44:11.815Z,100.00
2022-10-05T03:46:55.017Z,100.00
2022-10-05T03:49:50.740Z,100.00
2022-10-05T03:52:50.584Z,100.00
2022-10-05T03:55:55.491Z,100.00
2022-10-05T03:58:34.709Z,100.00
2022-10-05T04:01:10.489Z,100.00
2022-10-05T04:03:54.775Z,100.00
2022-10-05T04:06:35.546Z,100.00
2022-10-05T04:09:15.410Z,100.00
2022-10-05T04:11:55.680Z,100.00
2022-10-05T04:14:31.197Z,100.00
2022-10-05T04:17:05.514Z,100.00
2022-10-05T04:19:57.161Z,100.00
2022-10-05T04:22:40.704Z,100.00
2022-10-05T04:25:32.173Z,100.00
2022-10-05T04:28:17.912Z,100.00
2022-10-05T04:30:51.429Z,100.00
2022-10-05T04:33:19.137Z,100.00
2022-10-05T04:36:22.204Z,100.00
2022-10-05T04:39:32.141Z,100.00
2022-10-05T04:42:31.158Z,100.00
2022-10-05T04:45:22.800Z,100.00
2022-10-05T04:48:17.133Z,100.00
2022-10-05T04:51:11.763Z,100.00
2022-10-05T04:53:57.076Z,100.00
2022-10-05T04:56:46.121Z,100.00
2022-10-05T05:00:06.190Z,100.00
2022-10-05T05:03:31.109Z,100.00
2022-10-05T05:06:32.779Z,100.00
2022-10-05T05:09:21.282Z,100.00
2022-10-05T05:12:33.553Z,100.00
2022-10-05T05:15:10.629Z,100.00
2022-10-05T05:18:04.105Z,100.00
2022-10-05T05:20:37.248Z,100.00
2022-10-05T05:23:18.699Z,100.00
2022-10-05T05:26:11.895Z,100.00
2022-10-05T05:29:05.633Z,100.00
2022-10-05T05:32:28.384Z,100.00
2022-10-05T05:35:24.137Z,100.00
2022-10-05T05:38:31.167Z,100.00
2022-10-05T05:41:10.336Z,100.00
2022-10-05T05:44:06.505Z,100.00
2022-10-05T05:47:04.377Z,100.00
2022-10-05T05:49:44.318Z,100.00
2022-10-05T05:52:36.353Z,100.00
2022-10-05T05:55:22.354Z,100.00
2022-10-05T05:58:15.652Z,100.00
2022-10-05T06:01:32.851Z,100.00
2022-10-05T06:04:35.802Z,100.00
2022-10-05T06:07:05.350Z,100.00
2022-10-05T06:09:58.460Z,100.00
2022-10-05T06:12:47.711Z,100.00
2022-10-05T06:15:37.462Z,100.00
2022-10-05T06:18:16.405Z,100.00
2022-10-05T06:21:46.329Z,100.00
2022-10-05T06:25:07.968Z,100.00
2022-10-05T06:27:38.716Z,100.00
2022-10-05T06:30:15.859Z,100.00
2022-10-05T06:33:19.417Z,100.00
2022-10-05T06:36:11.859Z,100.00
2022-10-05T06:39:06.542Z,100.00
2022-10-05T06:42:14.855Z,100.00
2022-10-05T06:45:29.476Z,100.00
2022-10-05T06:48:31.472Z,100.00
2022-10-05T06:51:51.333Z,100.00
2022-10-05T06:55:04.535Z,100.00
2022-10-05T06:57:58.894Z,100.00
2022-10-05T07:00:49.367Z,100.00
2022-10-05T07:03:34.552Z,100.00
2022-10-05T07:06:28.204Z,100.00
2022-10-05T07:09:26.372Z,100.00
2022-10-05T07:12:41.679Z,100.00
2022-10-05T07:15:24.586Z,100.00
2022-10-05T07:18:26.973Z,100.00
2022-10-05T07:21:10.281Z,100.00
2022-10-05T07:23:46.316Z,100.00
2022-10-05T07:26:46.251Z,100.00
2022-10-05T07:29:55.130Z,100.00
2022-10-05T07:32:28.874Z,72.55
2022-10-05T07:35:32.629Z,66.76
2022-10-05T07:38:21.683Z,47.52
2022-10-05T07:40:58.808Z,42.89
2022-10-05T07:44:15.597Z,41.58
2022-10-05T07:47:02.362Z,48.31
2022-10-05T07:49:50.815Z,49.88
2022-10-05T07:52:28.286Z,51.60
2022-10-05T07:55:29.989Z,58.52
2022-10-05T07:58:05.599Z,63.72
2022-10-05T08:01:13.087Z,68.62
2022-10-05T08:04:01.064Z,69.51
2022-10-05T08:06:41.463Z,71.14
2022-10-05T08:09:26.336Z,70.91
2022-10-05T08:12:19.859Z,69.23
2022-10-05T08:15:21.283Z,60.53
2022-10-05T08:18:00.578Z,54.71
2022-10-05T08:20:35.451Z,48.58
2022-10-05T08:23:25.744Z,46.50
2022-10-05T08:26:11.755Z,47.79
2022-10-05T08:29:13.795Z,46.24
2022-10-05T08:31:47.095Z,47.98
2022-10-05T08:34:59.342Z,47.28
2022-10-05T08:37:37.384Z,48.23
2022-10-05T08:40:21.511Z,47.81
2022-10-05T08:43:27.504Z,44.53
2022-10-05T08:46:23.613Z,43.82
2022-10-05T08:49:24.376Z,44.84
2022-10-05T08:52:24.504Z,44.53
2022-10-05T08:54:51.609Z,45.66
2022-10-05T08:57:59.897Z,48.81
2022-10-05T09:00:56.549Z,52.17
2022-10-05T09:03:47.129Z,61.08
2022-10-05T09:06:48.243Z,58.21
2022-10-05T09:09:24.026Z,57.47
2022-10-05T09:12:27.546Z,53.31
2022-10-05T09:15:26.502Z,54.80
2022-10-05T09:18:27.026Z,50.96
2022-10-05T09:21:18.861Z,52.05
2022-10-05T09:24:01.342Z,54.27
2022-10-05T09:27:07.749Z,51.62
2022-10-05T09:30:02.899Z,50.98
2022-10-05T09:33:17.801Z,53.09
2022-10-05T09:36:19.934Z,55.11
2022-10-05T09:39:15.663Z,52.86
2022-10-05T09:41:45.855Z,54.96
2022-10-05T09:44:31.582Z,52.77
2022-10-05T09:47:36.278Z,51.75
2022-10-05T09:50:28.155Z,52.04
2022-10-05T09:53:01.470Z,49.65
2022-10-05T09:56:05.292Z,51.55
2022-10-05T09:58:55.206Z,48.44
2022-10-05T10:01:51.959Z,48.20
2022-10-05T10:04:50.603Z,49.72
2022-10-05T10:07:45.205Z,50.02
2022-10-05T10:11:11.591Z,48.57
2022-10-05T10:14:35.921Z,50.95
2022-10-05T10:17:47.549Z,48.09
2022-10-05T10:20:56.367Z,51.02
2022-10-05T10:24:15.931Z,52.48
2022-10-05T10:27:27.620Z,55.25
2022-10-05T10:30:26.303Z,54.61
2022-10-05T10:33:25.640Z,48.90
2022-10-05T10:36:44.014Z,50.38
2022-10-05T10:40:10.194Z,47.79
2022-10-05T10:42:56.338Z,48.67
2022-10-05T10:45:56.765Z,50.00
2022-10-05T10:48:29.368Z,51.19
2022-10-05T10:51:48.703Z,50.07
2022-10-05T10:55:02.743Z,47.55
2022-10-05T10:58:06.571Z,50.46
2022-10-05T11:01:05.501Z,49.64
2022-10-05T11:04:20.205Z,49.01
2022-10-05T11:07:42.909Z,45.98
2022-10-05T11:10:26.079Z,43.33
2022-10-05T11:13:26.713Z,44.91
2022-10-05T11:16:30.955Z,45.78
2022-10-05T11:19:35.136Z,44.26
2022-10-05T11:22:44.761Z,44.58
2022-10-05T11:25:31.214Z,44.44
2022-10-05T11:28:01.390Z,44.92
2022-10-05T11:31:05.736Z,44.25
2022-10-05T11:34:13.046Z,42.22
2022-10-05T11:37:38.314Z,43.52
2022-10-05T11:40:50.476Z,41.08
2022-10-05T11:43:47.611Z,40.92
2022-10-05T11:47:08.380Z,39.92
2022-10-05T11:50:15.850Z,41.70
2022-10-05T11:53:06.122Z,40.70
2022-10-05T11:55:50.208Z,41.82
2022-10-05T11:58:46.210Z,42.13
2022-10-05T12:01:27.776Z,45.71
2022-10-05T12:04:36.232Z,44.58
2022-10-05T12:07:27.615Z,45.50
2022-10-05T12:11:05.697Z,44.60
2022-10-05T12:13:48.411Z,43.63
2022-10-05T12:16:21.220Z,44.91
2022-10-05T12:19:13.520Z,43.68
2022-10-05T12:22:04.174Z,45.16
2022-10-05T12:24:37.197Z,43.37
2022-10-05T12:27:20.556Z,45.27
2022-10-05T12:30:29.571Z,44.91
2022-10-05T12:33:03.907Z,44.59
2022-10-05T12:36:01.418Z,46.25
2022-10-05T12:39:06.194Z,46.02
2022-10-05T12:41:45.268Z,46.02
2022-10-05T12:44:37.056Z,45.56
2022-10-05T12:47:33.805Z,49.17
2022-10-05T12:50:33.297Z,50.13
2022-10-05T12:53:29.213Z,49.33
2022-10-05T12:56:21.560Z,48.58
2022-10-05T12:59:11.018Z,50.49
2022-10-05T13:01:58.691Z,47.87
2022-10-05T13:05:02.667Z,48.46
2022-10-05T13:07:47.962Z,48.97
2022-10-05T13:10:50.735Z,50.14
2022-10-05T13:13:34.356Z,54.19
2022-10-05T13:16:22.056Z,50.59
2022-10-05T13:19:21.594Z,51.91
2022-10-05T13:22:27.079Z,53.87
2022-10-05T13:25:13.956Z,53.15
2022-10-05T13:28:08.430Z,54.63
2022-10-05T13:30:38.672Z,53.64
2022-10-05T13:33:24.847Z,54.94
2022-10-05T13:36:16.250Z,54.45
2022-10-05T13:38:57.871Z,56.43
2022-10-05T13:41:36.821Z,59.92
2022-10-05T13:44:43.274Z,57.02
2022-10-05T13:47:39.760Z,54.29
2022-10-05T13:50:19.417Z,55.72
2022-10-05T13:53:04.606Z,51.86
2022-10-05T13:56:13.015Z,57.37
2022-10-05T13:58:50.130Z,57.67
2022-10-05T14:01:41.577Z,55.80
2022-10-05T14:04:24.745Z,57.09
2022-10-05T14:06:52.790Z,56.51
2022-10-05T14:09:34.466Z,60.48
2022-10-05T14:12:04.761Z,56.92
2022-10-05T14:14:43.081Z,59.23
2022-10-05T14:17:40.290Z,58.83
2022-10-05T14:20:28.879Z,63.14
2022-10-05T14:23:03.208Z,60.68
2022-10-05T14:25:31.511Z,62.38
2022-10-05T14:28:33.834Z,68.67
2022-10-05T14:31:37.235Z,70.37
2022-10-05T14:34:34.839Z,64.21
2022-10-05T14:37:22.846Z,69.45
2022-10-05T14:39:54.976Z,73.41
2022-10-05T14:42:29.195Z,78.20
2022-10-05T14:45:22.621Z,77.02
2022-10-05T14:47:53.102Z,69.23
2022-10-05T14:50:29.888Z,70.14
2022-10-05T14:53:14.164Z,69.43
2022-10-05T14:55:56.425Z,75.38
2022-10-05T14:58:58.604Z,69.26
2022-10-05T15:01:36.967Z,78.64
2022-10-05T15:04:32.173Z,79.88
2022-10-05T15:07:25.344Z,70.88
2022-10-05T15:10:36.394Z,73.66
2022-10-05T15:13:21.969Z,80.65
2022-10-05T15:15:57.879Z,91.17
2022-10-05T15:18:32.151Z,98.17
2022-10-05T15:21:24.180Z,93.16
2022-10-05T15:24:04.896Z,97.88
2022-10-05T15:26:57.951Z,100.00
2022-10-05T15:29:52.815Z,100.00
2022-10-05T15:32:42.878Z,100.00
2022-10-05T15:35:37.184Z,100.00
2022-10-05T15:38:32.614Z,100.00
2022-10-05T15:41:22.970Z,100.00
2022-10-05T15:44:14.861Z,100.00
2022-10-05T15:46:56.542Z,100.00
2022-10-05T15:49:52.711Z,100.00
2022-10-05T15:52:55.459Z,100.00
2022-10-05T15:55:27.504Z,100.00
2022-10-05T15:58:40.980Z,100.00
2022-10-05T16:01:16.381Z,100.00
2022-10-05T16:04:11.165Z,100.00
2022-10-05T16:07:21.617Z,100.00
2022-10-05T16:09:59.739Z,100.00
2022-10-05T16:13:11.791Z,100.00
2022-10-05T16:15:46.505Z,100.00
2022-10-05T16:19:01.166Z,100.00
2022-10-05T16:22:06.696Z,99.16
2022-10-05T16:25:04.660Z,100.00
2022-10-05T16:27:37.148Z,100.00
2022-10-05T16:30:10.506Z,99.36
2022-10-05T16:33:15.716Z,93.34
2022-10-05T16:35:50.331Z,96.02
2022-10-05T16:38:38.866Z,100.00
2022-10-05T16:41:46.108Z,100.00
2022-10-05T16:44:31.424Z,100.00
2022-10-05T16:47:27.634Z,100.00
2022-10-05T16:50:21.874Z,100.00
2022-10-05T16:53:15.770Z,100.00
2022-10-05T16:55:49.284Z,100.00
2022-10-05T16:58:47.546Z,100.00
2022-10-05T17:02:02.385Z,100.00
2022-10-05T17:04:59.004Z,100.00
2022-10-05T17:07:39.494Z,100.00
2022-10-05T17:10:49.055Z,100.00
2022-10-05T17:13:23.629Z,100.00
2022-10-05T17:16:30.242Z,100.00
2022-10-05T17:19:19.613Z,100.00
2022-10-05T17:22:02.222Z,100.00
2022-10-05T17:24:58.453Z,100.00
2022-10-05T17:27:53.605Z,100.00
2022-10-05T17:30:38.929Z,100.00
2022-10-05T17:33:23.435Z,100.00
2022-10-05T17:36:12.378Z,100.00
2022-10-05T17:39:13.477Z,100.00
2022-10-05T17:41:41.131Z,100.00
2022-10-05T17:44:17.167Z,100.00
2022-10-05T17:46:51.515Z,100.00
2022-10-05T17:49:34.302Z,100.00
2022-10-05T17:52:44.704Z,100.00
2022-10-05T17:55:35.320Z,100.00
2022-10-05T17:58:29.078Z,100.00
2022-10-05T18:01:00.747Z,100.00
2022-10-05T18:03:51.474Z,100.00
2022-10-05T18:06:38.845Z,100.00
2022-10-05T18:09:20.443Z,100.00
2022-10-05T18:12:19.390Z,100.00
2022-10-05T18:15:01.520Z,100.00
2022-10-05T18:18:01.020Z,100.00
2022-10-05T18:20:34.957Z,100.00
2022-10-05T18:23:09.359Z,100.00
2022-10-05T18:26:21.225Z,100.00
2022-10-05T18:29:14.541Z,100.00
2022-10-05T18:32:04.536Z,100.00
2022-10-05T18:35:02.331Z,100.00
2022-10-05T18:38:02.012Z,100.00
2022-10-05T18:40:38.451Z,100.00
2022-10-05T18:43:32.916Z,100.00
2022-10-05T18:46:16.214Z,100.00
2022-10-05T18:49:34.867Z,100.00
2022-10-05T18:52:39.399Z,100.00
2022-10-05T18:55:38.111Z,100.00
2022-10-05T18:58:17.275Z,100.00
2022-10-05T19:01:01.975Z,100.00
2022-10-05T19:04:03.391Z,100.00
2022-10-05T19:06:45.465Z,100.00
2022-10-05T19:09:44.704Z,100.00
2022-10-05T19:12:41.630Z,100.00
2022-10-05T19:15:24.911Z,100.00
2022-10-05T19:18:13.190Z,100.00
2022-10-05T19:21:12.926Z,100.00
2022-10-05T19:24:04.776Z,100.00
2022-10-05T19:26:59.187Z,100.00
2022-10-05T19:30:12.197Z,100.00
2022-10-05T19:33:20.077Z,100.00
2022-10-05T19:35:51.073Z,100.00
2022-10-05T19:38:39.795Z,100.00
2022-10-05T19:41:22.780Z,100.00
2022-10-05T19:44:23.142Z,100.00
2022-10-05T19:47:15.102Z,100.00
2022-10-05T19:49:52.705Z,100.00
2022-10-05T19:52:37.787Z,100.00
2022-10-05T19:55:24.288Z,100.00
2022-10-05T19:58:01.955Z,100.00
2022-10-05T20:00:31.680Z,100.00
2022-10-05T20:03:27.708Z,100.00
2022-10-05T20:05:57.762Z,100.00
2022-10-05T20:08:27.518Z,100.00
2022-10-05T20:11:09.576Z,100.00
2022-10-05T20:13:41.800Z,100.00
2022-10-05T20:16:35.845Z,100.00
2022-10-05T20:19:50.763Z,100.00
2022-10-05T20:22:39.692Z,100.00
2022-10-05T20:25:19.904Z,100.00
2022-10-05T20:27:51.206Z,100.00
2022-10-05T20:30:22.019Z,100.00
2022-10-05T20:32:57.660Z,100.00
2022-10-05T20:35:28.871Z,100.00
2022-10-05T20:37:59.558Z,100.00
2022-10-05T20:40:29.314Z,100.00
2022-10-05T20:42:58.263Z,100.00
2022-10-05T20:45:25.837Z,100.00
2022-10-05T20:47:53.055Z,100.00
2022-10-05T20:50:22.241Z,100.00
2022-10-05T20:52:49.747Z,100.00
2022-10-05T20:55:17.224Z,100.00
2022-10-05T20:57:46.222Z,100.00
2022-10-05T21:00:14.228Z,100.00
2022-10-05T21:02:41.492Z,100.00
2022-10-05T21:05:09.596Z,100.00
2022-10-05T21:07:36.920Z,100.00
2022-10-05T21:10:04.783Z,100.00
2022-10-05T21:12:37.677Z,100.00
2022-10-05T21:15:06.765Z,100.00
2022-10-05T21:17:34.733Z,100.00
2022-10-05T21:20:02.123Z,100.00
2022-10-05T21:22:29.545Z,100.00
2022-10-05T21:24:56.718Z,100.00
2022-10-05T21:27:24.671Z,100.00
2022-10-05T21:29:52.281Z,100.00
2022-10-05T21:32:19.732Z,100.00
2022-10-05T21:34:46.992Z,100.00
2022-10-05T21:37:15.521Z,100.00
2022-10-05T21:39:42.783Z,100.00
2022-10-05T21:42:10.008Z,100.00
2022-10-05T21:44:37.248Z,100.00
2022-10-05T21:47:06.931Z,100.00
2022-10-05T21:49:35.448Z,100.00
2022-10-05T21:52:04.572Z,100.00
2022-10-05T21:54:33.751Z,100.00
2022-10-05T21:57:01.475Z,100.00
2022-10-05T21:59:32.650Z,100.00
2022-10-05T22:02:00.096Z,100.00
2022-10-05T22:04:27.431Z,100.00
2022-10-05T22:06:55.915Z,100.00
2022-10-05T22:09:23.641Z,100.00
2022-10-05T22:11:51.647Z,100.00
2022-10-05T22:14:18.903Z,100.00
2022-10-05T22:16:46.232Z,100.00
2022-10-05T22:19:19.154Z,100.00
2022-10-05T22:21:46.380Z,100.00
2022-10-05T22:24:13.732Z,100.00
2022-10-05T22:26:44.964Z,100.00
2022-10-05T22:29:12.766Z,100.00
2022-10-05T22:31:40.317Z,100.00
2022-10-05T22:34:07.596Z,100.00
2022-10-05T22:36:36.429Z,100.00
2022-10-05T22:39:04.484Z,100.00
2022-10-05T22:41:31.693Z,100.00
2022-10-05T22:43:59.486Z,100.00
2022-10-05T22:46:26.887Z,100.00
2022-10-05T22:48:54.296Z,100.00
2022-10-05T22:51:21.495Z,100.00
2022-10-05T22:53:48.754Z,100.00
2022-10-05T22:56:16.189Z,100.00
2022-10-05T22:58:44.718Z,100.00
2022-10-05T23:01:17.728Z,100.00
2022-10-05T23:03:45.557Z,100.00
2022-10-05T23:06:20.081Z,100.00
2022-10-05T23:08:47.587Z,100.00
2022-10-05T23:11:27.752Z,100.00
2022-10-05T23:13:57.060Z,100.00
2022-10-05T23:16:26.991Z,100.00
2022-10-05T23:18:55.487Z,100.00
2022-10-05T23:21:25.286Z,100.00
2022-10-05T23:23:52.766Z,100.00
2022-10-05T23:26:23.895Z,100.00
2022-10-05T23:28:51.646Z,100.00
2022-10-05T23:31:30.163Z,100.00
2022-10-05T23:33:57.475Z,100.00
2022-10-05T23:36:31.360Z,100.00
2022-10-05T23:39:00.061Z,100.00
2022-10-05T23:41:27.633Z,100.00
2022-10-05T23:43:55.305Z,100.00
2022-10-05T23:46:22.901Z,100.00
2022-10-05T23:48:50.446Z,100.00
2022-10-05T23:51:18.088Z,100.00
2022-10-05T23:53:45.591Z,100.00
2022-10-05T23:56:13.254Z,100.00
2022-10-05T23:58:41.157Z,100.00
